Time;durP1;ratioP1;P1;durP2;ratioP2;P2;SDS_P1;SDS_P2;PMS_P1;PMS_P2;Temp;Humidity;BMP_temperature;BMP_pressure;BME280_temperature;BME280_humidity;BME280_pressure;Samples;Min_cycle;Max_cycle;Signal;HPM_P1;HPM_P2
2022/07/14 00:20:15;;;;;;;1.35;0.50;;;14.30;99.90;;;;;;6182290;23;20054;-85
2022/07/14 00:22:41;;;;;;;3.97;0.50;;;14.30;99.90;;;;;;6100701;23;20022;-84
2022/07/14 00:25:08;;;;;;;1.42;0.43;;;14.20;99.90;;;;;;6126816;23;20029;-84
2022/07/14 00:27:39;;;;;;;2.65;0.60;;;14.10;99.90;;;;;;6126629;23;20054;-84
2022/07/14 00:30:06;;;;;;;2.17;0.40;;;14.10;99.90;;;;;;6100170;23;20022;-84
2022/07/14 00:32:35;;;;;;;1.20;0.40;;;14.10;99.90;;;;;;6100416;23;20126;-84
2022/07/14 00:35:02;;;;;;;4.95;0.50;;;14.00;99.90;;;;;;6100197;23;20018;-84
2022/07/14 00:37:28;;;;;;;3.72;0.57;;;14.00;99.90;;;;;;6126452;23;20348;-84
2022/07/14 00:39:56;;;;;;;0.85;0.40;;;14.00;99.90;;;;;;6126653;23;20018;-84
2022/07/14 00:42:45;;;;;;;1.77;0.40;;;14.00;99.90;;;;;;6126618;23;20022;-84
2022/07/14 00:45:18;;;;;;;1.60;0.43;;;14.00;99.90;;;;;;6126610;23;20009;-85
2022/07/14 00:47:46;;;;;;;3.05;0.60;;;14.00;99.90;;;;;;6126533;23;20337;-84
2022/07/14 00:50:14;;;;;;;1.58;0.52;;;13.90;99.90;;;;;;6126110;23;20022;-85
2022/07/14 00:52:42;;;;;;;3.08;0.60;;;13.90;99.90;;;;;;6126505;23;20017;-84
2022/07/14 00:55:12;;;;;;;2.60;0.57;;;13.90;99.90;;;;;;6126483;23;20077;-84
2022/07/14 00:57:38;;;;;;;1.60;0.50;;;13.90;99.90;;;;;;6126021;23;20018;-84
2022/07/14 01:00:09;;;;;;;2.83;0.50;;;13.90;99.90;;;;;;6126393;23;20048;-84
2022/07/14 01:02:35;;;;;;;2.05;0.60;;;13.80;99.90;;;;;;6126557;23;20018;-84
2022/07/14 01:05:01;;;;;;;3.33;0.70;;;13.80;99.90;;;;;;6126248;23;20024;-84
2022/07/14 01:07:26;;;;;;;3.33;0.40;;;13.90;99.90;;;;;;6100065;23;20014;-84
2022/07/14 01:09:52;;;;;;;3.83;0.50;;;13.90;99.90;;;;;;6099926;23;20508;-85
2022/07/14 01:12:18;;;;;;;2.38;0.60;;;13.70;99.90;;;;;;6125909;23;20096;-85
2022/07/14 01:14:44;;;;;;;1.80;0.57;;;14.10;99.90;;;;;;6126374;23;20018;-84
2022/07/14 01:17:10;;;;;;;1.70;0.50;;;13.70;99.90;;;;;;6099773;23;20064;-84
2022/07/14 01:19:37;;;;;;;1.55;0.60;;;14.10;99.90;;;;;;6099742;23;20022;-84
2022/07/14 01:22:03;;;;;;;1.83;0.55;;;13.60;99.90;;;;;;6125695;23;20026;-84
2022/07/14 01:24:29;;;;;;;4.97;0.52;;;13.60;99.90;;;;;;6099875;23;20109;-84
2022/07/14 01:26:55;;;;;;;3.08;0.70;;;13.60;99.90;;;;;;6125791;23;20018;-84
2022/07/14 01:29:22;;;;;;;3.38;0.60;;;13.50;99.90;;;;;;6126231;23;20018;-84
2022/07/14 01:31:48;;;;;;;2.30;0.60;;;13.50;99.90;;;;;;6125787;23;20074;-84
2022/07/14 01:34:13;;;;;;;4.25;0.60;;;13.50;99.90;;;;;;6126206;23;20377;-84
2022/07/14 01:36:39;;;;;;;1.98;0.60;;;13.40;99.90;;;;;;6099772;23;20394;-84
2022/07/14 01:39:06;;;;;;;2.38;0.55;;;13.40;99.90;;;;;;6100312;23;20025;-85
2022/07/14 01:41:33;;;;;;;3.05;0.65;;;14.00;99.90;;;;;;6126204;23;20014;-84
2022/07/14 01:43:59;;;;;;;2.20;0.68;;;13.40;99.90;;;;;;6099467;23;20025;-84
2022/07/14 01:46:25;;;;;;;1.17;0.50;;;13.40;99.90;;;;;;6125784;23;20341;-84
2022/07/14 01:48:50;;;;;;;2.22;0.50;;;13.80;99.90;;;;;;6099663;23;20022;-84
2022/07/14 01:51:17;;;;;;;3.33;0.70;;;13.30;99.90;;;;;;6099389;23;20021;-84
2022/07/14 01:53:42;;;;;;;3.50;0.70;;;13.30;99.90;;;;;;6100067;23;20971;-84
2022/07/14 01:56:09;;;;;;;3.17;0.63;;;13.30;99.90;;;;;;6125791;23;20025;-84
2022/07/14 01:58:35;;;;;;;2.05;0.75;;;13.20;99.90;;;;;;6099667;23;20066;-84
2022/07/14 02:03:45;;;;;;;2.15;0.60;;;13.20;99.90;;;;;;6125807;23;20108;-84
2022/07/14 02:06:14;;;;;;;2.97;0.68;;;13.20;99.90;;;;;;6099782;23;20350;-85
2022/07/14 02:08:39;;;;;;;1.50;0.68;;;13.20;99.90;;;;;;6125423;23;20014;-85
2022/07/14 02:13:49;;;;;;;2.08;0.60;;;13.10;99.90;;;;;;6125888;23;20022;-84
2022/07/14 02:16:15;;;;;;;2.08;0.80;;;13.20;99.90;;;;;;6125926;23;20018;-84
2022/07/14 02:18:41;;;;;;;3.60;0.57;;;13.20;99.90;;;;;;6099539;23;20022;-84
2022/07/14 02:21:08;;;;;;;2.28;0.70;;;13.10;99.90;;;;;;6099515;23;20026;-84
2022/07/14 02:23:33;;;;;;;1.50;0.50;;;13.10;99.90;;;;;;6125593;23;20017;-85
2022/07/14 02:25:59;;;;;;;2.25;0.68;;;13.10;99.90;;;;;;6099918;23;20220;-84
2022/07/14 02:28:25;;;;;;;1.83;0.60;;;13.00;99.90;;;;;;6125741;23;20317;-84
2022/07/14 02:30:51;;;;;;;2.67;0.70;;;13.20;99.90;;;;;;6125719;23;20022;-84
2022/07/14 02:33:17;;;;;;;4.65;0.70;;;13.10;99.90;;;;;;6123899;23;20022;-84
2022/07/14 02:35:43;;;;;;;3.70;0.80;;;13.10;99.90;;;;;;6125828;23;20014;-85
2022/07/14 02:38:09;;;;;;;4.55;0.68;;;13.00;99.90;;;;;;6099572;23;20343;-84
2022/07/14 02:40:35;;;;;;;2.53;0.60;;;13.00;99.90;;;;;;6125760;23;20041;-85
2022/07/14 02:43:01;;;;;;;3.70;0.60;;;13.00;99.90;;;;;;6099444;23;20344;-84
2022/07/14 02:45:27;;;;;;;2.50;0.70;;;13.00;99.90;;;;;;6125262;23;20014;-84
2022/07/14 02:47:53;;;;;;;1.55;0.60;;;12.90;99.90;;;;;;6125531;23;20029;-85
2022/07/14 02:50:19;;;;;;;4.05;0.60;;;13.30;99.90;;;;;;6125642;23;20057;-84
2022/07/14 02:52:45;;;;;;;1.85;0.50;;;12.90;99.90;;;;;;6125461;23;20014;-84
2022/07/14 02:55:10;;;;;;;2.35;0.60;;;13.00;99.90;;;;;;6125451;23;20127;-84
2022/07/14 02:57:36;;;;;;;2.33;0.75;;;12.90;99.90;;;;;;6125824;23;20369;-84
2022/07/14 03:00:04;;;;;;;1.90;0.60;;;12.90;99.90;;;;;;6125741;23;20033;-84
2022/07/14 03:02:33;;;;;;;1.67;0.55;;;12.80;99.90;;;;;;6101245;23;20022;-85
2022/07/14 03:04:59;;;;;;;3.78;0.80;;;12.80;99.90;;;;;;6127590;23;20093;-84
2022/07/14 03:07:24;;;;;;;1.50;0.50;;;12.80;99.90;;;;;;6127388;23;20436;-84
2022/07/14 03:09:50;;;;;;;2.90;1.15;;;12.80;99.90;;;;;;6101996;23;20018;-84
2022/07/14 03:12:16;;;;;;;2.05;0.60;;;12.80;99.90;;;;;;6127352;23;20018;-84
2022/07/14 03:14:42;;;;;;;3.20;0.40;;;12.90;99.90;;;;;;6101193;23;20130;-85
2022/07/14 03:17:07;;;;;;;1.27;0.77;;;12.80;99.90;;;;;;6125158;23;20073;-84
2022/07/14 03:19:33;;;;;;;1.88;0.40;;;12.70;99.90;;;;;;6125051;23;20027;-85
2022/07/14 03:21:59;;;;;;;1.27;0.50;;;12.80;99.90;;;;;;6127049;23;20024;-85
2022/07/14 03:24:24;;;;;;;3.72;0.60;;;12.90;99.90;;;;;;6127532;23;20387;-84
2022/07/14 03:26:50;;;;;;;2.03;0.55;;;12.80;99.90;;;;;;6101309;23;20026;-85
2022/07/14 03:29:16;;;;;;;1.83;0.55;;;12.80;99.90;;;;;;6101077;23;20471;-84
2022/07/14 03:31:42;;;;;;;1.95;0.70;;;12.70;99.90;;;;;;6127009;23;20018;-84
2022/07/14 03:34:07;;;;;;;2.63;0.60;;;13.30;99.90;;;;;;6126945;23;20440;-84
2022/07/14 03:36:33;;;;;;;1.05;0.50;;;12.70;99.90;;;;;;6125718;23;20025;-84
2022/07/14 03:38:59;;;;;;;3.75;0.60;;;13.00;99.90;;;;;;6127191;23;20018;-84
2022/07/14 03:41:25;;;;;;;1.67;0.57;;;13.00;99.90;;;;;;6127179;23;20461;-84
2022/07/14 03:43:50;;;;;;;3.90;0.57;;;13.40;99.90;;;;;;6101406;23;20013;-84
2022/07/14 03:46:16;;;;;;;4.05;0.60;;;12.70;99.90;;;;;;6100594;23;20108;-84
2022/07/14 03:48:42;;;;;;;3.70;0.65;;;12.90;99.90;;;;;;6127032;23;20017;-85
2022/07/14 03:51:08;;;;;;;0.77;0.40;;;12.60;99.90;;;;;;6126476;23;20069;-84
2022/07/14 03:53:34;;;;;;;1.05;0.70;;;12.60;99.90;;;;;;6100894;23;20024;-84
2022/07/14 03:55:59;;;;;;;1.10;0.47;;;12.70;99.90;;;;;;6126703;23;20014;-84
2022/07/14 03:58:26;;;;;;;1.77;0.40;;;12.60;99.90;;;;;;6127018;23;20014;-84
2022/07/14 04:00:52;;;;;;;2.88;0.50;;;12.60;99.90;;;;;;6100942;23;20097;-84
2022/07/14 04:03:18;;;;;;;1.27;0.50;;;13.20;99.90;;;;;;6125524;23;20049;-84
2022/07/14 04:05:45;;;;;;;1.63;0.57;;;12.40;99.90;;;;;;6126904;23;20036;-85
2022/07/14 04:08:11;;;;;;;3.55;0.73;;;12.60;99.90;;;;;;6100758;23;20100;-84
2022/07/14 04:10:37;;;;;;;2.67;0.52;;;13.20;99.90;;;;;;6127118;23;20456;-85
2022/07/14 04:13:03;;;;;;;2.88;0.60;;;13.00;99.90;;;;;;6100461;23;20026;-85
2022/07/14 04:15:30;;;;;;;1.23;0.40;;;12.70;99.90;;;;;;6126376;23;20050;-84
2022/07/14 04:18:00;;;;;;;1.38;0.40;;;12.70;99.90;;;;;;6126982;23;20013;-85
2022/07/14 04:20:26;;;;;;;3.05;0.43;;;12.70;99.90;;;;;;6126487;23;20096;-85
2022/07/14 04:22:51;;;;;;;2.08;0.40;;;12.80;99.90;;;;;;6100938;23;20417;-84
2022/07/14 04:25:17;;;;;;;0.50;0.30;;;12.70;99.90;;;;;;6126777;23;20014;-85
2022/07/14 04:27:44;;;;;;;0.60;0.30;;;12.80;99.90;;;;;;6126426;23;20352;-84
2022/07/14 04:30:12;;;;;;;0.70;0.40;;;12.80;99.90;;;;;;6100665;23;20381;-84
2022/07/14 04:32:38;;;;;;;0.52;0.30;;;12.80;99.90;;;;;;6100367;23;20018;-85
2022/07/14 04:35:04;;;;;;;1.02;0.38;;;12.90;99.90;;;;;;6126451;23;20113;-84
2022/07/14 04:37:30;;;;;;;2.35;0.50;;;12.90;99.90;;;;;;6100842;23;20057;-84
2022/07/14 04:39:56;;;;;;;2.67;0.40;;;13.40;99.90;;;;;;6100417;23;20017;-85
2022/07/14 04:42:23;;;;;;;0.30;0.30;;;13.00;99.90;;;;;;6100470;23;20018;-85
2022/07/14 04:44:49;;;;;;;1.25;0.30;;;13.00;99.90;;;;;;6126642;23;20018;-85
2022/07/14 04:47:15;;;;;;;0.85;0.30;;;13.10;99.90;;;;;;6100464;23;20352;-85
2022/07/14 04:52:25;;;;;;;0.45;0.30;;;13.20;99.90;;;;;;6126493;23;20022;-84
2022/07/14 04:54:51;;;;;;;2.15;0.20;;;13.20;99.90;;;;;;6126690;23;20014;-85
2022/07/14 04:57:18;;;;;;;1.45;0.30;;;13.30;99.90;;;;;;6099865;23;20400;-85
2022/07/14 04:59:45;;;;;;;0.95;0.20;;;13.40;99.90;;;;;;6100131;23;20025;-85
2022/07/14 05:02:13;;;;;;;1.73;0.30;;;13.40;99.90;;;;;;6126071;23;20018;-85
2022/07/14 05:04:39;;;;;;;1.10;0.30;;;13.50;99.90;;;;;;6126455;23;20021;-85
2022/07/14 05:07:05;;;;;;;0.75;0.40;;;13.50;99.90;;;;;;6126320;23;20380;-85
2022/07/14 05:09:33;;;;;;;0.65;0.30;;;13.70;99.90;;;;;;6125939;23;20014;-85
2022/07/14 05:12:01;;;;;;;0.30;0.30;;;13.60;99.90;;;;;;6099784;23;20097;-85
2022/07/14 05:14:27;;;;;;;0.90;0.35;;;14.30;99.90;;;;;;6126077;23;20056;-84
2022/07/14 05:16:53;;;;;;;1.77;0.30;;;13.70;99.90;;;;;;6099889;23;20025;-85
2022/07/14 05:19:19;;;;;;;0.68;0.20;;;13.80;99.90;;;;;;6100670;23;20021;-85
2022/07/14 05:21:45;;;;;;;0.68;0.20;;;13.90;99.90;;;;;;6099813;23;20014;-85
2022/07/14 05:24:11;;;;;;;0.85;0.30;;;14.00;99.90;;;;;;6125579;23;20158;-85
2022/07/14 05:26:38;;;;;;;0.75;0.40;;;14.40;99.90;;;;;;6125911;23;20061;-85
2022/07/14 05:29:04;;;;;;;1.33;0.30;;;14.30;99.90;;;;;;6100004;23;20072;-85
2022/07/14 05:31:30;;;;;;;1.30;0.30;;;14.40;99.90;;;;;;6125731;23;20018;-85
2022/07/14 05:33:56;;;;;;;0.93;0.30;;;14.40;99.90;;;;;;6126294;23;20014;-85
2022/07/14 05:36:25;;;;;;;0.52;0.20;;;14.60;99.90;;;;;;6099982;23;20444;-87
2022/07/14 05:38:51;;;;;;;0.90;0.20;;;14.80;99.90;;;;;;6099834;23;20349;-85
2022/07/14 05:41:19;;;;;;;0.20;0.20;;;14.90;99.90;;;;;;6100008;23;20026;-84
2022/07/14 05:43:46;;;;;;;2.15;0.30;;;15.00;99.90;;;;;;6099937;23;20056;-85
2022/07/14 05:46:12;;;;;;;1.85;0.20;;;15.10;99.90;;;;;;6125867;23;20479;-84
2022/07/14 05:48:38;;;;;;;0.30;0.20;;;15.30;99.90;;;;;;6125779;23;20017;-85
2022/07/14 05:51:05;;;;;;;1.55;0.63;;;15.50;99.90;;;;;;6099481;23;20029;-84
2022/07/14 05:53:56;;;;;;;0.77;0.20;;;15.50;99.90;;;;;;6127156;23;20021;-93
2022/07/14 05:56:26;;;;;;;0.77;0.20;;;15.50;99.90;;;;;;6100354;23;20021;-91
2022/07/14 06:05:49;;;;;;;2.60;0.50;;;16.10;99.90;;;;;;6127809;23;20029;-93
2022/07/14 06:08:15;;;;;;;1.38;0.40;;;16.30;99.90;;;;;;6100765;23;20014;-95
2022/07/14 06:10:41;;;;;;;1.42;0.30;;;16.40;99.90;;;;;;6101043;23;20072;-94
2022/07/14 06:13:07;;;;;;;1.73;0.40;;;16.60;99.90;;;;;;6100710;23;20014;-93
2022/07/14 06:15:32;;;;;;;4.32;0.50;;;16.60;99.90;;;;;;6100503;23;20540;-96
2022/07/14 06:17:58;;;;;;;2.72;0.30;;;16.80;99.90;;;;;;6126272;23;20089;-94
2022/07/14 06:20:24;;;;;;;1.90;0.20;;;16.90;99.90;;;;;;6125697;23;20340;-92
2022/07/14 06:22:55;;;;;;;4.68;0.40;;;17.10;99.90;;;;;;6126476;23;20029;-93
2022/07/14 06:25:36;;;;;;;1.88;0.20;;;17.20;99.90;;;;;;6126915;23;20014;-95
2022/07/14 06:28:02;;;;;;;0.88;0.20;;;17.20;99.90;;;;;;6125973;23;20030;-93
2022/07/14 06:30:48;;;;;;;0.77;0.20;;;17.70;99.90;;;;;;6101011;23;20452;-93
2022/07/14 06:37:02;;;;;;;1.55;0.20;;;17.80;99.90;;;;;;6128436;23;20469;-92
2022/07/14 06:39:40;;;;;;;0.93;0.10;;;17.80;99.90;;;;;;6127918;23;20064;-95
2022/07/14 06:42:07;;;;;;;1.17;0.20;;;18.00;99.90;;;;;;6127844;23;20025;-94
2022/07/14 06:44:36;;;;;;;1.05;0.20;;;18.10;99.90;;;;;;6130074;23;20084;-87
2022/07/14 06:47:05;;;;;;;2.17;0.20;;;18.20;99.90;;;;;;6076394;23;20077;-92
2022/07/14 06:49:49;;;;;;;4.43;0.60;;;18.40;99.90;;;;;;6102266;23;20018;-89
2022/07/14 06:55:21;;;;;;;1.75;0.22;;;18.70;99.90;;;;;;6150609;23;20025;-89
2022/07/14 06:57:47;;;;;;;1.52;0.17;;;19.00;99.90;;;;;;6160611;23;20017;-91
2022/07/14 07:07:21;;;;;;;1.73;0.13;;;19.10;99.90;;;;;;6139490;23;20049;-88
2022/07/14 07:09:47;;;;;;;2.05;0.20;;;19.20;99.90;;;;;;6155098;23;20025;-88
2022/07/14 07:12:12;;;;;;;0.38;0.10;;;19.50;99.90;;;;;;6157014;23;20028;-90
2022/07/14 07:14:38;;;;;;;0.80;0.10;;;19.60;99.90;;;;;;6157221;23;20172;-89
2022/07/14 07:17:04;;;;;;;0.20;0.20;;;19.80;99.90;;;;;;6156675;23;20089;-89
2022/07/14 07:19:29;;;;;;;3.97;0.22;;;19.90;99.90;;;;;;6156949;23;20020;-92
2022/07/14 07:21:55;;;;;;;1.42;0.20;;;20.10;99.90;;;;;;6157003;23;20018;-93
2022/07/14 07:24:21;;;;;;;1.15;0.10;;;20.10;99.90;;;;;;6155432;23;20017;-91
2022/07/14 07:26:46;;;;;;;1.27;0.05;;;20.20;99.90;;;;;;6154975;23;20021;-90
2022/07/14 07:29:12;;;;;;;1.45;0.13;;;20.30;99.90;;;;;;6130458;23;20404;-88
2022/07/14 07:31:47;;;;;;;1.55;0.10;;;20.30;99.90;;;;;;6156274;23;20013;-88
2022/07/14 07:34:15;;;;;;;1.25;0.10;;;20.50;99.90;;;;;;6156248;23;20093;-92
2022/07/14 07:36:40;;;;;;;0.93;0.10;;;20.70;99.90;;;;;;6155309;23;20444;-88
2022/07/14 07:39:06;;;;;;;1.73;0.30;;;20.80;99.90;;;;;;6155588;23;20022;-86
2022/07/14 07:42:02;;;;;;;3.00;0.20;;;20.70;99.90;;;;;;6155624;23;20041;-88
2022/07/14 07:44:30;;;;;;;0.57;0.10;;;20.60;99.90;;;;;;6179518;23;20025;-86
2022/07/14 07:46:56;;;;;;;0.10;0.10;;;20.60;99.90;;;;;;6159167;23;20032;-87
2022/07/14 07:50:14;;;;;;;0.95;0.10;;;20.60;99.90;;;;;;6160334;23;20017;-90
2022/07/14 07:53:05;;;;;;;1.63;0.10;;;20.50;99.90;;;;;;6159650;23;20447;-88
2022/07/14 07:55:57;;;;;;;0.60;0.10;;;20.70;99.90;;;;;;6159717;23;20025;-88
2022/07/14 07:58:36;;;;;;;;;;;;;;;;;;;;;
2022/07/14 08:01:07;;;;;;;1.50;0.10;;;21.00;99.90;;;;;;6155271;23;20096;-87
2022/07/14 08:03:33;;;;;;;0.82;0.20;;;21.10;99.90;;;;;;6184505;23;20025;-87
2022/07/14 08:06:11;;;;;;;0.70;0.20;;;21.10;99.90;;;;;;6186172;23;20039;-87
2022/07/14 08:08:57;;;;;;;0.40;0.10;;;21.30;99.90;;;;;;6159254;23;20056;-88
2022/07/14 08:13:48;;;;;;;1.80;0.20;;;21.30;99.90;;;;;;6159596;23;20463;-86
2022/07/14 08:16:14;;;;;;;2.85;0.20;;;21.20;99.90;;;;;;6106271;23;20020;-86
2022/07/14 08:18:40;;;;;;;1.77;0.20;;;21.30;99.90;;;;;;6154120;23;20026;-84
2022/07/14 08:21:05;;;;;;;1.38;0.10;;;21.20;99.90;;;;;;6184780;23;20045;-84
2022/07/14 08:23:32;;;;;;;1.08;0.10;;;21.10;99.90;;;;;;6134653;23;20021;-84
2022/07/14 08:25:58;;;;;;;0.20;0.10;;;21.00;99.90;;;;;;6159376;23;20017;-85
2022/07/14 08:28:23;;;;;;;1.55;0.15;;;21.10;99.90;;;;;;6184473;23;20017;-83
2022/07/14 08:30:49;;;;;;;1.60;0.10;;;21.40;99.90;;;;;;6186255;23;20021;-82
2022/07/14 08:33:15;;;;;;;1.02;0.10;;;21.40;99.90;;;;;;6184437;23;20117;-85
2022/07/14 08:35:41;;;;;;;1.90;0.30;;;21.50;99.90;;;;;;6185419;23;20101;-85
2022/07/14 08:38:06;;;;;;;0.55;0.10;;;21.70;99.90;;;;;;6159090;23;20079;-85
2022/07/14 08:40:36;;;;;;;1.30;0.15;;;21.60;99.90;;;;;;6159278;23;20351;-84
2022/07/14 08:43:02;;;;;;;3.10;0.10;;;21.80;99.90;;;;;;6186155;23;20340;-84
2022/07/14 08:45:34;;;;;;;1.45;0.10;;;21.90;99.90;;;;;;6185689;23;20494;-85
2022/07/14 08:48:01;;;;;;;1.63;0.10;;;21.50;99.90;;;;;;6158919;23;20061;-86
2022/07/14 08:50:27;;;;;;;2.95;0.10;;;21.40;99.90;;;;;;6184125;23;20024;-85
2022/07/14 08:52:53;;;;;;;2.65;0.22;;;21.50;99.90;;;;;;6159426;23;20016;-85
2022/07/14 08:55:19;;;;;;;0.57;0.10;;;21.50;99.90;;;;;;6186243;23;20021;-85
2022/07/14 08:57:46;;;;;;;0.77;0.10;;;21.40;99.90;;;;;;6159425;23;20013;-87
2022/07/14 09:00:15;;;;;;;0.77;0.20;;;21.30;99.90;;;;;;6159127;23;20028;-87
2022/07/14 09:02:47;;;;;;;1.73;0.20;;;21.40;99.90;;;;;;6185505;23;20024;-87
2022/07/14 09:05:14;;;;;;;1.35;0.10;;;21.70;99.90;;;;;;6159112;23;20013;-87
2022/07/14 09:07:41;;;;;;;0.22;0.00;;;21.80;99.90;;;;;;6158981;23;20025;-87
2022/07/14 09:10:12;;;;;;;0.68;0.20;;;21.70;99.90;;;;;;6159345;23;20092;-87
2022/07/14 09:12:38;;;;;;;0.80;0.10;;;21.80;99.90;;;;;;6159234;23;20017;-86
2022/07/14 09:17:53;;;;;;;0.90;0.10;;;21.60;99.90;;;;;;6158603;23;20083;-88
2022/07/14 09:20:20;;;;;;;2.75;0.17;;;21.60;99.90;;;;;;6159236;23;20469;-87
2022/07/14 09:22:46;;;;;;;1.83;0.10;;;21.50;99.90;;;;;;6185290;23;20020;-87
2022/07/14 09:25:16;;;;;;;0.57;0.10;;;21.40;99.90;;;;;;6183800;23;20019;-87
2022/07/14 09:27:45;;;;;;;0.55;0.10;;;21.30;99.90;;;;;;6158635;23;20029;-85
2022/07/14 09:30:11;;;;;;;1.08;0.10;;;21.50;99.90;;;;;;6185554;23;20028;-86
2022/07/14 09:32:51;;;;;;;0.32;0.20;;;21.40;99.90;;;;;;6185215;23;20005;-86
2022/07/14 09:35:20;;;;;;;1.35;0.15;;;21.40;99.90;;;;;;6158524;23;20021;-85
2022/07/14 09:37:53;;;;;;;1.58;0.10;;;21.50;99.90;;;;;;6134363;23;20020;-86
2022/07/14 09:40:44;;;;;;;0.73;0.10;;;21.70;99.90;;;;;;6149813;23;20021;-86
2022/07/14 09:43:23;;;;;;;1.27;0.20;;;21.60;99.90;;;;;;6133499;23;20032;-86
2022/07/14 09:45:54;;;;;;;2.40;0.20;;;21.80;99.90;;;;;;6185207;23;20017;-86
2022/07/14 09:48:21;;;;;;;1.52;0.15;;;21.90;99.90;;;;;;6184359;23;20017;-87
2022/07/14 09:50:56;;;;;;;1.35;0.20;;;22.00;99.90;;;;;;6158925;23;20017;-86
2022/07/14 09:53:32;;;;;;;0.75;0.30;;;22.10;99.90;;;;;;6158508;23;20028;-85
2022/07/14 09:56:03;;;;;;;2.92;0.20;;;22.10;99.90;;;;;;6184631;23;20112;-85
2022/07/14 10:01:03;;;;;;;1.00;0.10;;;22.00;99.90;;;;;;6155320;23;20057;-85
2022/07/14 10:03:51;;;;;;;1.90;0.20;;;22.00;99.90;;;;;;6128732;23;20472;-86
2022/07/14 10:06:18;;;;;;;1.30;0.10;;;22.00;99.90;;;;;;6128795;23;20213;-88
2022/07/14 10:08:53;;;;;;;2.15;0.20;;;21.80;99.90;;;;;;6153977;23;20113;-84
2022/07/14 10:11:19;;;;;;;0.57;0.15;;;22.00;99.90;;;;;;6128377;23;20021;-86
2022/07/14 10:13:45;;;;;;;2.05;0.10;;;22.10;99.90;;;;;;6129011;23;20013;-85
2022/07/14 10:16:12;;;;;;;1.52;0.20;;;22.10;99.90;;;;;;6154751;23;20043;-86
2022/07/14 10:18:42;;;;;;;2.08;0.15;;;22.20;99.90;;;;;;6155414;23;20018;-86
2022/07/14 10:21:10;;;;;;;1.45;0.10;;;22.20;99.90;;;;;;6155320;23;20024;-86
2022/07/14 10:23:37;;;;;;;0.77;0.10;;;22.20;99.90;;;;;;6129431;23;20036;-85
2022/07/14 10:26:05;;;;;;;1.48;0.20;;;22.10;99.90;;;;;;6128778;23;20025;-85
2022/07/14 10:28:31;;;;;;;0.93;0.50;;;22.50;99.90;;;;;;6128511;23;20034;-86
2022/07/14 10:31:32;;;;;;;0.82;0.20;;;22.80;99.90;;;;;;6155339;23;20016;-87
2022/07/14 10:34:22;;;;;;;1.27;0.20;;;22.40;99.90;;;;;;6153933;23;20027;-84
2022/07/14 10:36:53;;;;;;;0.40;0.10;;;22.40;99.90;;;;;;6128966;23;20017;-86
2022/07/14 10:39:45;;;;;;;1.52;0.10;;;22.10;99.90;;;;;;6155037;23;20057;-85
2022/07/14 10:42:51;;;;;;;1.23;0.52;;;22.10;99.90;;;;;;6129277;23;20018;-85
2022/07/14 10:45:17;;;;;;;2.15;0.15;;;21.90;99.90;;;;;;6154984;23;20448;-85
2022/07/14 10:47:53;;;;;;;0.73;0.10;;;21.80;99.90;;;;;;6128240;23;20060;-86
2022/07/14 10:50:27;;;;;;;1.30;0.10;;;21.80;99.90;;;;;;6129464;23;20018;-85
2022/07/14 10:53:05;;;;;;;2.75;0.30;;;21.50;99.90;;;;;;6155324;23;20013;-85
2022/07/14 10:55:31;;;;;;;1.77;0.20;;;21.40;99.90;;;;;;6155242;23;20013;-86
2022/07/14 10:58:04;;;;;;;1.10;0.20;;;21.50;99.90;;;;;;6128833;23;20046;-85
2022/07/14 11:00:46;;;;;;;0.85;0.10;;;21.40;99.90;;;;;;6128494;23;20399;-85
2022/07/14 11:03:43;;;;;;;0.98;0.20;;;21.50;99.90;;;;;;6154692;23;20026;-85
2022/07/14 11:06:09;;;;;;;0.60;0.13;;;21.30;99.90;;;;;;6155133;23;20014;-86
2022/07/14 11:08:41;;;;;;;1.90;0.20;;;21.50;99.90;;;;;;6128506;23;20022;-86
2022/07/14 11:11:23;;;;;;;2.20;0.30;;;21.50;99.90;;;;;;6155030;23;20017;-85
2022/07/14 11:14:00;;;;;;;1.70;0.10;;;21.40;99.90;;;;;;6154988;23;20044;-86
2022/07/14 11:16:45;;;;;;;4.57;0.20;;;21.50;99.90;;;;;;6155053;23;20017;-86
2022/07/14 11:19:25;;;;;;;0.82;0.10;;;21.50;99.90;;;;;;6128648;23;20018;-85
2022/07/14 11:22:18;;;;;;;5.55;0.20;;;21.50;99.90;;;;;;6105548;23;20040;-86
2022/07/14 11:24:57;;;;;;;2.35;0.28;;;21.50;99.90;;;;;;6014074;23;20030;-85
2022/07/14 11:27:34;;;;;;;1.00;0.20;;;21.40;99.90;;;;;;6037644;23;20054;-86
2022/07/14 11:30:28;;;;;;;3.08;0.20;;;21.50;99.90;;;;;;6037042;23;20340;-86
2022/07/14 11:33:06;;;;;;;1.52;0.10;;;21.60;99.90;;;;;;6013832;23;20476;-85
2022/07/14 11:38:37;;;;;;;2.22;0.20;;;21.70;99.90;;;;;;6013719;23;20402;-86
2022/07/14 11:41:08;;;;;;;1.05;0.25;;;21.80;99.90;;;;;;6014062;23;20016;-86
2022/07/14 11:43:35;;;;;;;2.92;0.10;;;22.00;99.90;;;;;;6037677;23;20019;-85
2022/07/14 11:46:11;;;;;;;1.27;0.20;;;22.40;99.90;;;;;;6038034;23;20090;-86
2022/07/14 11:48:46;;;;;;;1.60;0.20;;;22.60;99.60;;;;;;6013684;23;20019;-87
2022/07/14 11:51:17;;;;;;;0.70;0.10;;;22.60;99.70;;;;;;6013853;23;20469;-87
2022/07/14 11:53:43;;;;;;;1.00;0.10;;;22.50;99.50;;;;;;6037966;23;20378;-86
2022/07/14 11:56:10;;;;;;;1.17;0.13;;;22.40;99.20;;;;;;6037869;23;20062;-87
2022/07/14 11:58:40;;;;;;;0.93;0.20;;;22.70;97.40;;;;;;6060966;23;20019;-87
2022/07/14 12:01:07;;;;;;;1.50;0.20;;;22.50;98.00;;;;;;6093903;23;20443;-87
2022/07/14 12:03:34;;;;;;;2.00;0.22;;;22.30;98.50;;;;;;6156303;23;20013;-87
2022/07/14 12:06:01;;;;;;;0.70;0.20;;;22.30;97.60;;;;;;6130155;23;20013;-85
2022/07/14 12:08:29;;;;;;;2.40;0.10;;;22.30;98.60;;;;;;6130422;23;20039;-86
2022/07/14 12:11:04;;;;;;;1.17;0.10;;;22.40;97.50;;;;;;6129992;23;20021;-84
2022/07/14 12:13:30;;;;;;;1.48;0.20;;;22.50;96.50;;;;;;6130143;23;20081;-84
2022/07/14 12:16:03;;;;;;;1.08;0.10;;;22.50;97.00;;;;;;6129626;23;20399;-87
2022/07/14 12:18:31;;;;;;;1.38;0.10;;;22.50;96.40;;;;;;6130483;23;20440;-85
2022/07/14 12:20:59;;;;;;;0.50;0.20;;;22.30;97.00;;;;;;6130345;23;20021;-85
2022/07/14 12:23:25;;;;;;;2.05;0.20;;;22.40;97.60;;;;;;6129877;23;20026;-85
2022/07/14 12:25:51;;;;;;;2.40;0.20;;;22.70;96.90;;;;;;6130150;23;20029;-85
2022/07/14 12:28:21;;;;;;;0.77;0.20;;;22.80;95.60;;;;;;6129596;23;20021;-84
2022/07/14 12:30:51;;;;;;;0.43;0.17;;;22.90;96.60;;;;;;6129889;23;20021;-85
2022/07/14 12:33:28;;;;;;;1.10;0.20;;;23.20;95.10;;;;;;6155577;23;20021;-85
2022/07/14 12:35:56;;;;;;;2.60;0.22;;;23.30;94.60;;;;;;6155848;23;20029;-84
2022/07/14 12:38:25;;;;;;;0.93;0.10;;;23.40;94.50;;;;;;6156309;23;20444;-84
2022/07/14 12:41:03;;;;;;;0.77;0.10;;;23.60;95.10;;;;;;6156360;23;20343;-84
2022/07/14 12:43:34;;;;;;;1.20;0.40;;;23.70;94.90;;;;;;6156058;23;20013;-84
2022/07/14 12:46:08;;;;;;;0.82;0.10;;;23.80;95.10;;;;;;6156066;23;20017;-85
2022/07/14 12:48:54;;;;;;;1.83;0.30;;;24.00;95.20;;;;;;6129987;23;20021;-86
2022/07/14 12:51:22;;;;;;;2.35;0.20;;;24.30;93.20;;;;;;6156234;23;20499;-86
2022/07/14 12:54:17;;;;;;;1.85;0.20;;;24.10;92.20;;;;;;6104973;23;20437;-85
2022/07/14 12:56:52;;;;;;;0.98;0.20;;;24.20;93.50;;;;;;6129514;23;20314;-85
2022/07/14 12:59:29;;;;;;;1.70;0.20;;;23.80;93.60;;;;;;6129201;23;20079;-85
2022/07/14 13:02:01;;;;;;;1.80;0.20;;;23.60;92.80;;;;;;6129659;23;20475;-84
2022/07/14 13:04:33;;;;;;;0.75;0.20;;;23.40;92.70;;;;;;6155240;23;20452;-85
2022/07/14 13:07:28;;;;;;;0.38;0.10;;;22.90;93.90;;;;;;6129510;23;20029;-88
2022/07/14 13:10:15;;;;;;;1.35;0.25;;;22.60;93.80;;;;;;6179047;23;20025;-88
2022/07/14 13:12:44;;;;;;;0.63;0.20;;;22.50;94.60;;;;;;6129752;23;20436;-87
2022/07/14 13:15:15;;;;;;;1.77;0.30;;;22.50;94.60;;;;;;6129125;23;20031;-87
2022/07/14 13:17:58;;;;;;;1.20;0.13;;;23.00;94.20;;;;;;6155746;23;20013;-87
2022/07/14 13:20:48;;;;;;;1.25;0.10;;;23.50;93.70;;;;;;6179012;23;20025;-88
2022/07/14 13:23:37;;;;;;;2.03;0.28;;;23.50;92.90;;;;;;6178709;23;20021;-87
2022/07/14 13:26:14;;;;;;;3.58;0.20;;;23.40;93.30;;;;;;6128883;23;20506;-87
2022/07/14 13:28:45;;;;;;;1.13;0.13;;;23.10;93.10;;;;;;6129162;23;20033;-89
2022/07/14 13:31:14;;;;;;;1.02;0.10;;;22.80;93.30;;;;;;6129269;23;20101;-87
2022/07/14 13:33:42;;;;;;;1.75;0.20;;;22.60;93.90;;;;;;6129117;23;20026;-88
2022/07/14 13:36:09;;;;;;;3.17;0.38;;;22.50;93.40;;;;;;6154974;23;20451;-86
2022/07/14 13:38:37;;;;;;;0.73;0.10;;;22.90;94.40;;;;;;6128299;23;20392;-88
2022/07/14 13:41:04;;;;;;;1.17;0.20;;;23.00;94.30;;;;;;6129004;23;20013;-88
2022/07/14 13:43:29;;;;;;;2.63;0.25;;;22.70;93.60;;;;;;6129120;23;20053;-88
2022/07/14 13:45:56;;;;;;;1.90;0.20;;;22.70;93.10;;;;;;6129011;23;20013;-86
2022/07/14 13:48:22;;;;;;;2.00;0.20;;;22.60;93.30;;;;;;6155466;23;20451;-87
2022/07/14 13:53:33;;;;;;;1.00;0.00;;;23.00;93.90;;;;;;6155407;23;20057;-86
2022/07/14 13:56:03;;;;;;;1.20;0.70;;;23.00;93.90;;;;;;6155709;23;20029;-87
2022/07/14 13:58:29;;;;;;;0.13;0.08;;;23.30;94.10;;;;;;6155664;23;20084;-86
2022/07/14 14:00:55;;;;;;;2.30;0.20;;;23.40;93.50;;;;;;6128542;23;20022;-87
2022/07/14 14:03:26;;;;;;;2.22;0.25;;;23.30;93.10;;;;;;6129311;23;20020;-87